sensor_id;sensor_type;location;lat;lon;timestamp;P1;durP1;ratioP1;P2;durP2;ratioP2
5827;SDS011;42583;50.240;8.444;2023-03-25T00:03:31;0.70;;;0.70;;
5827;SDS011;42583;50.240;8.444;2023-03-25T00:18:36;2.10;;;0.80;;
5827;SDS011;42583;50.240;8.444;2023-03-25T00:33:36;2.38;;;0.90;;
5827;SDS011;42583;50.240;8.444;2023-03-25T00:48:40;2.90;;;0.90;;
5827;SDS011;42583;50.240;8.444;2023-03-25T01:03:42;2.63;;;0.90;;
5827;SDS011;42583;50.240;8.444;2023-03-25T01:18:43;2.70;;;1.10;;
5827;SDS011;42583;50.240;8.444;2023-03-25T01:33:44;4.07;;;0.90;;
5827;SDS011;42583;50.240;8.444;2023-03-25T01:48:44;3.08;;;1.05;;
5827;SDS011;42583;50.240;8.444;2023-03-25T02:03:48;2.10;;;0.98;;
5827;SDS011;42583;50.240;8.444;2023-03-25T02:34:27;4.10;;;1.60;;
5827;SDS011;42583;50.240;8.444;2023-03-25T02:49:42;3.35;;;1.73;;
5827;SDS011;42583;50.240;8.444;2023-03-25T03:04:50;2.83;;;1.70;;
5827;SDS011;42583;50.240;8.444;2023-03-25T03:19:56;4.43;;;2.20;;
5827;SDS011;42583;50.240;8.444;2023-03-25T03:35:26;5.67;;;2.30;;
5827;SDS011;42583;50.240;8.444;2023-03-25T03:50:35;5.93;;;2.20;;
5827;SDS011;42583;50.240;8.444;2023-03-25T04:05:42;6.00;;;2.40;;
5827;SDS011;42583;50.240;8.444;2023-03-25T04:20:48;5.80;;;1.90;;
5827;SDS011;42583;50.240;8.444;2023-03-25T04:35:48;3.78;;;1.80;;
5827;SDS011;42583;50.240;8.444;2023-03-25T04:50:50;3.88;;;1.30;;
5827;SDS011;42583;50.240;8.444;2023-03-25T05:05:51;4.18;;;1.35;;
5827;SDS011;42583;50.240;8.444;2023-03-25T05:20:52;3.58;;;1.20;;
5827;SDS011;42583;50.240;8.444;2023-03-25T05:35:54;4.10;;;1.10;;
5827;SDS011;42583;50.240;8.444;2023-03-25T05:50:56;3.35;;;1.00;;
5827;SDS011;42583;50.240;8.444;2023-03-25T06:05:57;5.90;;;1.10;;
5827;SDS011;42583;50.240;8.444;2023-03-25T06:20:57;5.90;;;1.05;;
5827;SDS011;42583;50.240;8.444;2023-03-25T06:35:58;4.93;;;1.23;;
5827;SDS011;42583;50.240;8.444;2023-03-25T06:50:59;4.97;;;1.02;;
5827;SDS011;42583;50.240;8.444;2023-03-25T07:05:59;4.95;;;1.02;;
5827;SDS011;42583;50.240;8.444;2023-03-25T07:21:00;4.07;;;0.95;;
5827;SDS011;42583;50.240;8.444;2023-03-25T07:36:01;4.60;;;1.20;;
5827;SDS011;42583;50.240;8.444;2023-03-25T07:51:02;5.25;;;1.83;;
5827;SDS011;42583;50.240;8.444;2023-03-25T08:06:03;6.13;;;1.25;;
5827;SDS011;42583;50.240;8.444;2023-03-25T08:21:05;9.43;;;1.48;;
5827;SDS011;42583;50.240;8.444;2023-03-25T08:36:07;9.18;;;1.65;;
5827;SDS011;42583;50.240;8.444;2023-03-25T08:51:18;9.55;;;1.50;;
5827;SDS011;42583;50.240;8.444;2023-03-25T09:06:19;9.48;;;1.80;;
5827;SDS011;42583;50.240;8.444;2023-03-25T09:21:20;9.15;;;1.30;;
5827;SDS011;42583;50.240;8.444;2023-03-25T09:36:20;0.88;;;0.70;;
5827;SDS011;42583;50.240;8.444;2023-03-25T09:51:23;0.60;;;0.60;;
5827;SDS011;42583;50.240;8.444;2023-03-25T10:06:29;1.27;;;0.77;;
5827;SDS011;42583;50.240;8.444;2023-03-25T10:36:51;4.13;;;1.00;;
5827;SDS011;42583;50.240;8.444;2023-03-25T10:51:57;7.22;;;1.30;;
5827;SDS011;42583;50.240;8.444;2023-03-25T11:06:58;3.67;;;1.15;;
5827;SDS011;42583;50.240;8.444;2023-03-25T11:22:02;4.22;;;1.17;;
5827;SDS011;42583;50.240;8.444;2023-03-25T11:37:16;7.22;;;1.42;;
5827;SDS011;42583;50.240;8.444;2023-03-25T11:52:20;7.40;;;1.55;;
5827;SDS011;42583;50.240;8.444;2023-03-25T12:07:26;6.07;;;1.30;;
5827;SDS011;42583;50.240;8.444;2023-03-25T12:22:34;5.53;;;1.20;;
5827;SDS011;42583;50.240;8.444;2023-03-25T13:08:31;2.83;;;1.30;;
5827;SDS011;42583;50.240;8.444;2023-03-25T13:23:40;1.98;;;1.20;;
5827;SDS011;42583;50.240;8.444;2023-03-25T13:38:51;3.17;;;1.20;;
5827;SDS011;42583;50.240;8.444;2023-03-25T14:09:15;7.03;;;1.50;;
5827;SDS011;42583;50.240;8.444;2023-03-25T14:24:32;5.90;;;1.50;;
5827;SDS011;42583;50.240;8.444;2023-03-25T14:39:38;4.87;;;1.10;;
5827;SDS011;42583;50.240;8.444;2023-03-25T14:54:39;6.60;;;1.30;;
5827;SDS011;42583;50.240;8.444;2023-03-25T15:09:43;3.95;;;1.25;;
5827;SDS011;42583;50.240;8.444;2023-03-25T15:24:51;4.35;;;1.65;;
5827;SDS011;42583;50.240;8.444;2023-03-25T15:55:35;7.50;;;1.53;;
5827;SDS011;42583;50.240;8.444;2023-03-25T16:10:39;4.20;;;1.38;;
5827;SDS011;42583;50.240;8.444;2023-03-25T16:25:40;4.97;;;1.38;;
5827;SDS011;42583;50.240;8.444;2023-03-25T16:40:41;3.00;;;1.20;;
5827;SDS011;42583;50.240;8.444;2023-03-25T16:55:47;3.88;;;1.20;;
5827;SDS011;42583;50.240;8.444;2023-03-25T17:11:20;2.58;;;1.10;;
5827;SDS011;42583;50.240;8.444;2023-03-25T17:26:24;4.50;;;1.10;;
5827;SDS011;42583;50.240;8.444;2023-03-25T17:41:28;2.57;;;1.10;;
5827;SDS011;42583;50.240;8.444;2023-03-25T17:56:34;4.38;;;1.30;;
5827;SDS011;42583;50.240;8.444;2023-03-25T18:11:37;4.35;;;1.30;;
5827;SDS011;42583;50.240;8.444;2023-03-25T18:26:38;2.03;;;1.05;;
5827;SDS011;42583;50.240;8.444;2023-03-25T18:41:42;2.72;;;1.05;;
5827;SDS011;42583;50.240;8.444;2023-03-25T18:56:43;1.52;;;1.00;;
5827;SDS011;42583;50.240;8.444;2023-03-25T19:11:44;2.98;;;1.00;;
5827;SDS011;42583;50.240;8.444;2023-03-25T19:26:46;6.00;;;1.42;;
5827;SDS011;42583;50.240;8.444;2023-03-25T19:41:47;2.90;;;1.00;;
5827;SDS011;42583;50.240;8.444;2023-03-25T19:56:50;5.15;;;1.00;;
5827;SDS011;42583;50.240;8.444;2023-03-25T20:11:50;4.72;;;1.17;;
5827;SDS011;42583;50.240;8.444;2023-03-25T20:26:51;3.85;;;1.17;;
5827;SDS011;42583;50.240;8.444;2023-03-25T20:41:51;4.05;;;1.00;;
5827;SDS011;42583;50.240;8.444;2023-03-25T20:56:52;4.72;;;1.27;;
5827;SDS011;42583;50.240;8.444;2023-03-25T21:11:53;6.90;;;1.20;;
5827;SDS011;42583;50.240;8.444;2023-03-25T21:26:53;4.70;;;1.30;;
5827;SDS011;42583;50.240;8.444;2023-03-25T21:41:54;8.27;;;1.48;;
5827;SDS011;42583;50.240;8.444;2023-03-25T21:56:55;4.70;;;1.20;;
5827;SDS011;42583;50.240;8.444;2023-03-25T22:11:55;4.60;;;1.38;;
5827;SDS011;42583;50.240;8.444;2023-03-25T22:26:56;5.55;;;1.30;;
5827;SDS011;42583;50.240;8.444;2023-03-25T22:41:56;4.95;;;1.33;;
5827;SDS011;42583;50.240;8.444;2023-03-25T22:56:57;6.85;;;1.58;;
5827;SDS011;42583;50.240;8.444;2023-03-25T23:11:57;13.60;;;1.65;;
5827;SDS011;42583;50.240;8.444;2023-03-25T23:26:58;11.45;;;1.90;;
5827;SDS011;42583;50.240;8.444;2023-03-25T23:41:58;9.95;;;1.70;;
5827;SDS011;42583;50.240;8.444;2023-03-25T23:56:59;11.70;;;2.13;;
